Terminal Aerodrome Forecast
Issued by NWS Cleveland, OH

Home | Current Version | Previous Version | Graphics & Text | Print | Product List | Glossary Off
Versions: 1 2 3 4 5 6 7 8 9 10 11 12 13 14 15 16

911
FTUS41 KCLE 051127
TAFTOL
TAF
KTOL 051127Z 0512/0612 36006KT P6SM BKN008 OVC012
      TEMPO 0512/0514 5SM BR
     FM051400 36010KT P6SM BKN012 OVC025
     FM051600 02015G25KT P6SM OVC035
     FM060100 01006KT P6SM SKC=

USA.gov is the U.S. government's official web portal to all federal, state and local government web resources and services.